sensor_id;sensor_type;location;lat;lon;timestamp;P1;durP1;ratioP1;P2;durP2;ratioP2
46036;SDS011;31769;49.304;8.428;2023-04-24T17:01:57;5.25;;;2.88;;
46036;SDS011;31769;49.304;8.428;2023-04-24T17:04:59;3.42;;;2.88;;
46036;SDS011;31769;49.304;8.428;2023-04-24T17:08:00;3.83;;;2.75;;
46036;SDS011;31769;49.304;8.428;2023-04-24T17:11:00;2.95;;;2.70;;
46036;SDS011;31769;49.304;8.428;2023-04-24T17:14:01;5.30;;;3.10;;
46036;SDS011;31769;49.304;8.428;2023-04-24T17:17:02;4.70;;;3.15;;
46036;SDS011;31769;49.304;8.428;2023-04-24T17:20:03;2.33;;;2.15;;
46036;SDS011;31769;49.304;8.428;2023-04-24T17:23:04;2.33;;;2.13;;
46036;SDS011;31769;49.304;8.428;2023-04-24T17:26:05;2.35;;;1.65;;
46036;SDS011;31769;49.304;8.428;2023-04-24T17:29:06;1.65;;;1.30;;
46036;SDS011;31769;49.304;8.428;2023-04-24T17:32:07;3.05;;;1.95;;
46036;SDS011;31769;49.304;8.428;2023-04-24T17:35:07;4.68;;;4.28;;
46036;SDS011;31769;49.304;8.428;2023-04-24T17:38:09;1.60;;;0.80;;
46036;SDS011;31769;49.304;8.428;2023-04-24T17:41:10;1.23;;;0.85;;
46036;SDS011;31769;49.304;8.428;2023-04-24T17:44:10;1.33;;;1.23;;
46036;SDS011;31769;49.304;8.428;2023-04-24T17:47:11;1.05;;;0.93;;
46036;SDS011;31769;49.304;8.428;2023-04-24T17:50:12;1.17;;;1.10;;
46036;SDS011;31769;49.304;8.428;2023-04-24T17:53:13;1.48;;;1.38;;
46036;SDS011;31769;49.304;8.428;2023-04-24T17:56:15;1.50;;;1.40;;
46036;SDS011;31769;49.304;8.428;2023-04-24T17:59:15;2.08;;;1.40;;
46036;SDS011;31769;49.304;8.428;2023-04-24T18:02:16;2.15;;;1.52;;
46036;SDS011;31769;49.304;8.428;2023-04-24T18:05:17;1.70;;;1.60;;
46036;SDS011;31769;49.304;8.428;2023-04-24T18:08:17;2.17;;;1.80;;
46036;SDS011;31769;49.304;8.428;2023-04-24T18:11:18;2.65;;;2.03;;
46036;SDS011;31769;49.304;8.428;2023-04-24T18:14:19;2.78;;;2.10;;
46036;SDS011;31769;49.304;8.428;2023-04-24T18:17:20;2.58;;;2.38;;
46036;SDS011;31769;49.304;8.428;2023-04-24T18:20:20;2.83;;;2.55;;
46036;SDS011;31769;49.304;8.428;2023-04-24T18:23:21;3.90;;;2.17;;
46036;SDS011;31769;49.304;8.428;2023-04-24T18:26:22;3.55;;;2.75;;
46036;SDS011;31769;49.304;8.428;2023-04-24T18:29:23;2.95;;;2.75;;
46036;SDS011;31769;49.304;8.428;2023-04-24T18:32:23;3.28;;;2.97;;
46036;SDS011;31769;49.304;8.428;2023-04-24T18:35:25;3.60;;;2.65;;
46036;SDS011;31769;49.304;8.428;2023-04-24T18:38:26;3.78;;;3.15;;
46036;SDS011;31769;49.304;8.428;2023-04-24T18:41:27;3.20;;;2.90;;
46036;SDS011;31769;49.304;8.428;2023-04-24T18:44:27;4.35;;;3.55;;
46036;SDS011;31769;49.304;8.428;2023-04-24T18:47:28;3.22;;;2.92;;
46036;SDS011;31769;49.304;8.428;2023-04-24T18:50:29;3.42;;;2.53;;
46036;SDS011;31769;49.304;8.428;2023-04-24T18:53:31;3.13;;;2.72;;
46036;SDS011;31769;49.304;8.428;2023-04-24T18:56:32;3.10;;;2.80;;
46036;SDS011;31769;49.304;8.428;2023-04-24T18:59:32;3.35;;;2.97;;
46036;SDS011;31769;49.304;8.428;2023-04-24T19:02:33;4.32;;;3.10;;
46036;SDS011;31769;49.304;8.428;2023-04-24T19:05:34;4.43;;;3.88;;
46036;SDS011;31769;49.304;8.428;2023-04-24T19:08:34;4.90;;;4.00;;
46036;SDS011;31769;49.304;8.428;2023-04-24T19:11:37;4.10;;;3.70;;
46036;SDS011;31769;49.304;8.428;2023-04-24T19:14:38;4.93;;;4.50;;
46036;SDS011;31769;49.304;8.428;2023-04-24T19:17:38;4.93;;;4.38;;
46036;SDS011;31769;49.304;8.428;2023-04-24T19:20:39;5.93;;;4.50;;
46036;SDS011;31769;49.304;8.428;2023-04-24T19:23:40;5.15;;;3.95;;
46036;SDS011;31769;49.304;8.428;2023-04-24T19:26:41;4.00;;;3.67;;
46036;SDS011;31769;49.304;8.428;2023-04-24T19:29:41;4.85;;;4.20;;
46036;SDS011;31769;49.304;8.428;2023-04-24T19:32:42;5.03;;;4.40;;
46036;SDS011;31769;49.304;8.428;2023-04-24T19:35:43;6.30;;;4.70;;
46036;SDS011;31769;49.304;8.428;2023-04-24T19:38:44;4.82;;;4.15;;
46036;SDS011;31769;49.304;8.428;2023-04-24T19:41:45;4.68;;;4.28;;
46036;SDS011;31769;49.304;8.428;2023-04-24T19:44:46;5.63;;;4.20;;
46036;SDS011;31769;49.304;8.428;2023-04-24T19:47:46;4.30;;;3.90;;
46036;SDS011;31769;49.304;8.428;2023-04-24T19:50:47;4.35;;;3.95;;
46036;SDS011;31769;49.304;8.428;2023-04-24T19:53:48;4.70;;;4.28;;
46036;SDS011;31769;49.304;8.428;2023-04-24T19:56:49;4.78;;;4.28;;
46036;SDS011;31769;49.304;8.428;2023-04-24T19:59:49;4.75;;;4.35;;
46036;SDS011;31769;49.304;8.428;2023-04-24T20:02:50;5.57;;;4.60;;
46036;SDS011;31769;49.304;8.428;2023-04-24T20:05:51;4.93;;;4.50;;
46036;SDS011;31769;49.304;8.428;2023-04-24T20:08:51;4.75;;;4.35;;
46036;SDS011;31769;49.304;8.428;2023-04-24T20:11:52;5.18;;;4.68;;
46036;SDS011;31769;49.304;8.428;2023-04-24T20:14:53;4.10;;;3.78;;
46036;SDS011;31769;49.304;8.428;2023-04-24T20:17:54;4.63;;;4.22;;
46036;SDS011;31769;49.304;8.428;2023-04-24T20:20:54;6.97;;;4.35;;
46036;SDS011;31769;49.304;8.428;2023-04-24T20:23:58;9.32;;;6.90;;
46036;SDS011;31769;49.304;8.428;2023-04-24T20:26:59;6.28;;;5.00;;
46036;SDS011;31769;49.304;8.428;2023-04-24T20:30:02;4.45;;;3.92;;
46036;SDS011;31769;49.304;8.428;2023-04-24T20:33:03;3.88;;;3.53;;
46036;SDS011;31769;49.304;8.428;2023-04-24T20:36:04;4.28;;;3.92;;
46036;SDS011;31769;49.304;8.428;2023-04-24T20:39:05;3.20;;;2.90;;
46036;SDS011;31769;49.304;8.428;2023-04-24T20:42:05;3.20;;;3.00;;
46036;SDS011;31769;49.304;8.428;2023-04-24T20:45:06;3.42;;;3.13;;
46036;SDS011;31769;49.304;8.428;2023-04-24T20:48:08;3.60;;;3.30;;
46036;SDS011;31769;49.304;8.428;2023-04-24T20:51:10;3.80;;;3.50;;
46036;SDS011;31769;49.304;8.428;2023-04-24T20:54:10;4.15;;;3.85;;
46036;SDS011;31769;49.304;8.428;2023-04-24T20:57:11;3.72;;;3.42;;
46036;SDS011;31769;49.304;8.428;2023-04-24T21:00:12;4.40;;;3.25;;
46036;SDS011;31769;49.304;8.428;2023-04-24T21:03:13;4.57;;;4.15;;
46036;SDS011;31769;49.304;8.428;2023-04-24T21:06:14;5.35;;;3.90;;
46036;SDS011;31769;49.304;8.428;2023-04-24T21:09:15;4.65;;;4.28;;
46036;SDS011;31769;49.304;8.428;2023-04-24T21:12:15;5.78;;;4.95;;
46036;SDS011;31769;49.304;8.428;2023-04-24T21:15:16;5.15;;;4.70;;
46036;SDS011;31769;49.304;8.428;2023-04-24T21:18:17;5.13;;;4.63;;
46036;SDS011;31769;49.304;8.428;2023-04-24T21:21:18;5.07;;;4.40;;
46036;SDS011;31769;49.304;8.428;2023-04-24T21:24:18;4.15;;;3.85;;
46036;SDS011;31769;49.304;8.428;2023-04-24T21:27:19;6.10;;;4.28;;
46036;SDS011;31769;49.304;8.428;2023-04-24T21:30:20;4.82;;;4.43;;
46036;SDS011;31769;49.304;8.428;2023-04-24T21:33:21;5.25;;;4.75;;
46036;SDS011;31769;49.304;8.428;2023-04-24T21:36:22;5.97;;;5.13;;
46036;SDS011;31769;49.304;8.428;2023-04-24T21:39:22;7.00;;;5.32;;
46036;SDS011;31769;49.304;8.428;2023-04-24T21:42:23;6.28;;;5.68;;
46036;SDS011;31769;49.304;8.428;2023-04-24T21:45:24;6.55;;;5.80;;
46036;SDS011;31769;49.304;8.428;2023-04-24T21:48:25;7.05;;;6.32;;
46036;SDS011;31769;49.304;8.428;2023-04-24T21:51:25;6.60;;;6.10;;
46036;SDS011;31769;49.304;8.428;2023-04-24T21:54:27;6.25;;;5.65;;
46036;SDS011;31769;49.304;8.428;2023-04-24T21:57:28;7.90;;;7.20;;
46036;SDS011;31769;49.304;8.428;2023-04-24T22:00:29;7.35;;;6.53;;
46036;SDS011;31769;49.304;8.428;2023-04-24T22:03:30;7.05;;;6.45;;
46036;SDS011;31769;49.304;8.428;2023-04-24T22:06:31;9.35;;;6.65;;
46036;SDS011;31769;49.304;8.428;2023-04-24T22:09:33;7.35;;;6.65;;
46036;SDS011;31769;49.304;8.428;2023-04-24T22:12:33;8.98;;;6.85;;
46036;SDS011;31769;49.304;8.428;2023-04-24T22:15:34;7.95;;;7.15;;
46036;SDS011;31769;49.304;8.428;2023-04-24T22:18:35;7.75;;;6.43;;
46036;SDS011;31769;49.304;8.428;2023-04-24T22:21:35;7.25;;;6.55;;
46036;SDS011;31769;49.304;8.428;2023-04-24T22:24:36;7.10;;;6.40;;
46036;SDS011;31769;49.304;8.428;2023-04-24T22:27:37;6.78;;;6.18;;
46036;SDS011;31769;49.304;8.428;2023-04-24T22:30:37;6.93;;;5.90;;
46036;SDS011;31769;49.304;8.428;2023-04-24T22:33:38;8.38;;;5.82;;
46036;SDS011;31769;49.304;8.428;2023-04-24T22:36:39;6.32;;;5.72;;
46036;SDS011;31769;49.304;8.428;2023-04-24T22:39:39;7.57;;;6.00;;
46036;SDS011;31769;49.304;8.428;2023-04-24T22:42:40;6.43;;;5.63;;
46036;SDS011;31769;49.304;8.428;2023-04-24T22:45:41;5.80;;;5.30;;
46036;SDS011;31769;49.304;8.428;2023-04-24T22:48:41;6.07;;;5.57;;
46036;SDS011;31769;49.304;8.428;2023-04-24T22:51:43;9.45;;;5.53;;
46036;SDS011;31769;49.304;8.428;2023-04-24T22:54:43;5.90;;;5.30;;
46036;SDS011;31769;49.304;8.428;2023-04-24T22:57:44;5.97;;;5.35;;
46036;SDS011;31769;49.304;8.428;2023-04-24T23:00:46;5.43;;;5.03;;
46036;SDS011;31769;49.304;8.428;2023-04-24T23:03:47;6.35;;;5.35;;
46036;SDS011;31769;49.304;8.428;2023-04-24T23:06:48;5.55;;;5.03;;
46036;SDS011;31769;49.304;8.428;2023-04-24T23:09:48;5.57;;;5.18;;
46036;SDS011;31769;49.304;8.428;2023-04-24T23:12:49;5.25;;;4.85;;
46036;SDS011;31769;49.304;8.428;2023-04-24T23:15:50;5.22;;;4.72;;
46036;SDS011;31769;49.304;8.428;2023-04-24T23:18:50;5.35;;;4.85;;
46036;SDS011;31769;49.304;8.428;2023-04-24T23:21:51;5.75;;;5.15;;
46036;SDS011;31769;49.304;8.428;2023-04-24T23:24:52;5.03;;;4.53;;
46036;SDS011;31769;49.304;8.428;2023-04-24T23:27:52;6.25;;;4.32;;
46036;SDS011;31769;49.304;8.428;2023-04-24T23:30:53;5.63;;;4.68;;
46036;SDS011;31769;49.304;8.428;2023-04-24T23:33:54;5.43;;;4.93;;
46036;SDS011;31769;49.304;8.428;2023-04-24T23:36:54;5.68;;;5.25;;
46036;SDS011;31769;49.304;8.428;2023-04-24T23:39:55;6.00;;;5.57;;
46036;SDS011;31769;49.304;8.428;2023-04-24T23:42:56;5.90;;;5.15;;
46036;SDS011;31769;49.304;8.428;2023-04-24T23:45:56;6.00;;;5.40;;
46036;SDS011;31769;49.304;8.428;2023-04-24T23:48:57;5.82;;;5.32;;
46036;SDS011;31769;49.304;8.428;2023-04-24T23:51:57;6.05;;;5.45;;
46036;SDS011;31769;49.304;8.428;2023-04-24T23:54:58;6.07;;;5.57;;
46036;SDS011;31769;49.304;8.428;2023-04-24T23:57:59;6.18;;;5.57;;
